Time;durP1;ratioP1;P1;durP2;ratioP2;P2;SDS_P1;SDS_P2;PMS_P1;PMS_P2;Temp;Humidity;BMP_temperature;BMP_pressure;BME280_temperature;BME280_humidity;BME280_pressure;Samples;Min_cycle;Max_cycle;Signal;HPM_P1;HPM_P2
2023/04/09 00:00:23;;;;;;;27.25;19.83;;;;;;;1.98;100.00;102762.78;5038344;28;20230;-46
2023/04/09 00:02:48;;;;;;;26.63;18.95;;;;;;;2.07;100.00;102776.25;5037731;28;20261;-46
2023/04/09 00:05:14;;;;;;;26.52;20.85;;;;;;;1.97;100.00;102769.81;5039061;28;20187;-46
2023/04/09 00:07:39;;;;;;;26.52;18.77;;;;;;;2.13;100.00;102764.94;5035566;28;20204;-44
2023/04/09 00:10:05;;;;;;;25.45;19.38;;;;;;;2.23;100.00;102772.25;5044366;28;20281;-43
2023/04/09 00:12:31;;;;;;;23.02;19.42;;;;;;;2.18;100.00;102772.13;5054612;28;20191;-44
2023/04/09 00:14:56;;;;;;;24.98;20.73;;;;;;;2.19;100.00;102779.25;5042758;28;20371;-43
2023/04/09 00:17:22;;;;;;;29.45;20.95;;;;;;;2.25;100.00;102765.28;5038346;28;20584;-44
2023/04/09 00:19:47;;;;;;;25.63;19.60;;;;;;;2.35;100.00;102771.72;5042871;28;20176;-42
2023/04/09 00:22:14;;;;;;;27.52;20.55;;;;;;;2.30;100.00;102768.06;5042719;28;20234;-45
2023/04/09 00:24:40;;;;;;;26.55;20.67;;;;;;;2.17;100.00;102767.72;5051630;28;20190;-47
2023/04/09 00:27:05;;;;;;;23.60;19.15;;;;;;;2.16;100.00;102765.91;5048717;28;20191;-45
2023/04/09 00:29:31;;;;;;;31.13;21.00;;;;;;;2.25;100.00;102763.53;5041004;28;20187;-47
2023/04/09 00:31:56;;;;;;;28.70;20.65;;;;;;;2.24;100.00;102771.44;5040639;28;20195;-46
2023/04/09 00:34:22;;;;;;;25.70;18.80;;;;;;;2.39;100.00;102760.38;5048723;28;20202;-43
2023/04/09 00:36:47;;;;;;;28.40;21.95;;;;;;;2.37;100.00;102754.16;5036685;28;20732;-43
2023/04/09 00:39:13;;;;;;;25.60;20.42;;;;;;;2.44;100.00;102756.09;5036742;28;20536;-44
2023/04/09 00:41:38;;;;;;;26.55;21.15;;;;;;;2.46;100.00;102759.66;5045442;28;20864;-43
2023/04/09 00:44:04;;;;;;;27.35;19.90;;;;;;;2.56;100.00;102755.50;5042271;28;20287;-44
2023/04/09 00:46:31;;;;;;;26.10;19.75;;;;;;;2.63;100.00;102762.75;5032829;28;20642;-44
2023/04/09 00:48:57;;;;;;;21.00;17.30;;;;;;;2.68;100.00;102766.41;5031658;28;20199;-48
2023/04/09 00:51:23;;;;;;;25.73;18.95;;;;;;;2.71;100.00;102753.25;5033232;28;20172;-44
2023/04/09 00:53:49;;;;;;;27.48;21.23;;;;;;;2.64;100.00;102753.94;5032782;28;20215;-43
2023/04/09 00:56:17;;;;;;;27.23;20.85;;;;;;;2.56;100.00;102744.91;5015222;28;20195;-46
2023/04/09 00:58:43;;;;;;;26.25;19.55;;;;;;;2.64;100.00;102738.97;5032570;28;20202;-47
2023/04/09 01:01:08;;;;;;;28.88;20.67;;;;;;;2.70;100.00;102745.28;5041947;28;20187;-48
2023/04/09 01:03:34;;;;;;;28.38;21.58;;;;;;;2.65;100.00;102734.59;5046036;28;20175;-48
2023/04/09 01:06:17;;;;;;;26.92;19.92;;;;;;;2.73;100.00;102740.06;5047110;28;20230;-48
2023/04/09 01:09:04;;;;;;;30.73;22.40;;;;;;;2.75;100.00;102733.94;5046235;28;20366;-46
2023/04/09 01:12:06;;;;;;;37.47;25.23;;;;;;;2.80;100.00;102744.63;5047759;28;20210;-46
2023/04/09 01:14:48;;;;;;;29.73;22.60;;;;;;;2.77;100.00;102742.81;5039706;28;20286;-46
2023/04/09 01:17:23;;;;;;;31.10;22.83;;;;;;;2.78;100.00;102739.31;5036277;28;20200;-47
2023/04/09 01:20:02;;;;;;;32.13;22.27;;;;;;;2.86;100.00;102743.06;5037923;28;20215;-47
2023/04/09 01:22:39;;;;;;;30.00;22.10;;;;;;;2.82;100.00;102741.19;5052620;28;20179;-46
2023/04/09 01:25:28;;;;;;;33.08;23.42;;;;;;;2.86;100.00;102745.72;5051290;28;20533;-45
2023/04/09 01:28:22;;;;;;;35.20;23.45;;;;;;;2.89;100.00;102743.13;5040182;28;20708;-46
2023/04/09 01:30:57;;;;;;;31.65;23.63;;;;;;;2.88;100.00;102736.03;5026648;28;20261;-47
2023/04/09 01:33:24;;;;;;;31.02;23.33;;;;;;;2.88;100.00;102738.66;5052624;28;20207;-46
2023/04/09 01:35:51;;;;;;;33.05;23.92;;;;;;;2.86;100.00;102735.13;5047566;28;20601;-48
2023/04/09 01:38:20;;;;;;;29.38;22.50;;;;;;;2.95;100.00;102745.03;5038670;28;20195;-44
2023/04/09 01:40:47;;;;;;;32.67;22.88;;;;;;;2.97;100.00;102745.06;5040026;28;20322;-46
2023/04/09 01:43:14;;;;;;;27.42;21.27;;;;;;;3.04;100.00;102734.66;5034588;28;20171;-46
2023/04/09 01:45:40;;;;;;;22.90;19.00;;;;;;;3.11;100.00;102726.88;5047538;28;20183;-47
2023/04/09 01:48:07;;;;;;;24.75;19.60;;;;;;;3.14;100.00;102732.22;5038394;28;20210;-46
2023/04/09 01:50:33;;;;;;;28.00;20.48;;;;;;;3.16;100.00;102725.22;5042205;28;20270;-49
2023/04/09 01:53:00;;;;;;;27.95;20.35;;;;;;;3.08;100.00;102730.31;5039610;28;20610;-47
2023/04/09 01:55:26;;;;;;;26.20;20.75;;;;;;;3.12;100.00;102729.53;5036780;28;20215;-46
2023/04/09 01:57:51;;;;;;;27.15;19.42;;;;;;;3.15;100.00;102726.97;5034545;28;20242;-49
2023/04/09 02:00:18;;;;;;;29.73;20.90;;;;;;;3.15;100.00;102726.06;5030309;28;20191;-44
2023/04/09 02:02:54;;;;;;;26.45;20.45;;;;;;;3.13;100.00;102730.41;5030249;28;20157;-48
2023/04/09 02:05:22;;;;;;;23.50;19.38;;;;;;;3.21;100.00;102737.69;5031728;28;20172;-48
2023/04/09 02:07:54;;;;;;;28.02;19.60;;;;;;;3.23;100.00;102732.44;5030276;28;20211;-45
2023/04/09 02:10:23;;;;;;;26.80;20.85;;;;;;;3.21;100.00;102734.13;5030216;28;20160;-47
2023/04/09 02:12:51;;;;;;;28.52;21.70;;;;;;;3.15;100.00;102734.91;5031425;28;20238;-47
2023/04/09 02:15:18;;;;;;;29.17;20.48;;;;;;;3.15;100.00;102726.97;5031508;28;20174;-49
2023/04/09 02:17:44;;;;;;;23.98;19.13;;;;;;;3.23;100.00;102720.06;5031597;28;20195;-47
2023/04/09 02:20:10;;;;;;;28.80;20.83;;;;;;;3.27;100.00;102726.34;5031593;28;20173;-46
2023/04/09 02:22:37;;;;;;;26.45;20.30;;;;;;;3.33;100.00;102715.00;5031377;28;20168;-45
2023/04/09 02:25:04;;;;;;;29.08;20.08;;;;;;;3.34;100.00;102708.81;5031528;28;20542;-45
2023/04/09 02:27:29;;;;;;;22.02;18.10;;;;;;;3.34;100.00;102716.78;5031438;28;20215;-46
2023/04/09 02:29:55;;;;;;;26.52;20.55;;;;;;;3.34;100.00;102714.13;5029800;28;20654;-47
2023/04/09 02:32:20;;;;;;;27.25;21.63;;;;;;;3.26;100.00;102703.38;5027868;28;20540;-45
2023/04/09 02:34:46;;;;;;;28.00;20.58;;;;;;;3.24;100.00;102705.97;5030160;28;20188;-45
2023/04/09 02:37:12;;;;;;;25.90;21.02;;;;;;;3.32;100.00;102702.59;5029804;28;20623;-45
2023/04/09 02:39:37;;;;;;;25.63;19.67;;;;;;;3.36;100.00;102701.81;5030937;28;20164;-48
2023/04/09 02:42:03;;;;;;;30.38;22.60;;;;;;;3.31;100.00;102699.06;5030642;28;20160;-42
2023/04/09 02:44:28;;;;;;;29.52;22.42;;;;;;;3.17;100.00;102693.47;5029475;28;20550;-43
2023/04/09 02:46:54;;;;;;;29.30;22.98;;;;;;;3.19;100.00;102701.44;5030658;28;20170;-43
2023/04/09 02:49:20;;;;;;;31.63;22.52;;;;;;;3.23;100.00;102698.00;5031136;28;20266;-45
2023/04/09 02:51:45;;;;;;;33.75;23.83;;;;;;;3.22;100.00;102699.75;5029471;28;20658;-49
2023/04/09 02:54:11;;;;;;;31.02;23.13;;;;;;;3.13;100.00;102696.91;5029115;28;20674;-43
2023/04/09 02:56:37;;;;;;;33.92;23.55;;;;;;;3.10;100.00;102694.16;5030751;28;20172;-43
2023/04/09 02:59:02;;;;;;;32.58;22.70;;;;;;;3.08;100.00;102687.94;5029319;28;20168;-45
2023/04/09 03:01:28;;;;;;;31.60;22.60;;;;;;;3.06;100.00;102692.31;5028946;28;20183;-44
2023/04/09 03:03:53;;;;;;;30.15;22.17;;;;;;;3.13;100.00;102688.97;5029325;28;20219;-43
2023/04/09 03:06:19;;;;;;;30.23;21.10;;;;;;;3.20;100.00;102690.88;5030383;28;20226;-46
2023/04/09 03:08:44;;;;;;;25.40;20.17;;;;;;;3.26;100.00;102688.38;5028937;28;20286;-47
2023/04/09 03:11:10;;;;;;;26.77;20.48;;;;;;;3.32;100.00;102686.69;5029398;28;20187;-47
2023/04/09 03:13:36;;;;;;;29.90;20.63;;;;;;;3.34;100.00;102674.38;5038204;28;20200;-48
2023/04/09 03:16:02;;;;;;;32.95;23.20;;;;;;;3.32;100.00;102678.75;5035291;28;20261;-46
2023/04/09 03:18:27;;;;;;;33.58;22.70;;;;;;;3.29;100.00;102687.53;5045940;28;20199;-47
2023/04/09 03:20:53;;;;;;;33.13;23.00;;;;;;;3.31;100.00;102677.88;5039556;28;20223;-54
2023/04/09 03:23:19;;;;;;;30.88;22.55;;;;;;;3.23;100.00;102675.03;5038517;28;20176;-46
2023/04/09 03:25:46;;;;;;;29.50;22.17;;;;;;;3.30;100.00;102682.28;5044522;28;20179;-47
2023/04/09 03:28:16;;;;;;;29.33;22.42;;;;;;;3.32;100.00;102674.34;5035877;28;20294;-46
2023/04/09 03:30:51;;;;;;;31.23;23.08;;;;;;;3.33;100.00;102677.91;5038666;28;20175;-47
2023/04/09 03:33:18;;;;;;;36.22;24.73;;;;;;;3.24;100.00;102670.66;5037945;28;20227;-48
2023/04/09 03:35:54;;;;;;;32.58;22.55;;;;;;;3.38;100.00;102679.78;5033810;28;20192;-48
2023/04/09 03:38:30;;;;;;;31.10;22.55;;;;;;;3.36;100.00;102681.50;5039213;28;20228;-46
2023/04/09 03:40:57;;;;;;;31.55;22.50;;;;;;;3.42;100.00;102675.44;5046145;28;20179;-46
2023/04/09 03:43:23;;;;;;;32.08;23.55;;;;;;;3.47;100.00;102685.25;5044496;28;20176;-48
2023/04/09 03:45:51;;;;;;;36.03;23.55;;;;;;;3.49;100.00;102680.00;5048517;28;20180;-47
2023/04/09 03:48:25;;;;;;;32.85;22.52;;;;;;;3.51;100.00;102671.22;5047890;28;20231;-46
2023/04/09 03:50:52;;;;;;;37.13;26.88;;;;;;;3.36;100.00;102683.25;5043334;28;20691;-44
2023/04/09 03:53:24;;;;;;;34.85;24.38;;;;;;;3.45;100.00;102694.94;5048753;28;20195;-50
2023/04/09 03:55:50;;;;;;;36.55;25.17;;;;;;;3.46;100.00;102678.19;5049236;28;20188;-47
2023/04/09 03:58:22;;;;;;;36.53;25.30;;;;;;;3.41;100.00;102676.28;5041551;28;20258;-46
2023/04/09 04:00:47;;;;;;;34.92;24.48;;;;;;;3.45;100.00;102683.44;5048971;28;20696;-45
2023/04/09 04:03:30;;;;;;;34.60;24.90;;;;;;;3.53;100.00;102684.50;5052353;28;20195;-47
2023/04/09 04:06:26;;;;;;;38.58;26.70;;;;;;;3.44;100.00;102684.31;5031056;28;20191;-47
2023/04/09 04:09:14;;;;;;;39.40;26.02;;;;;;;3.41;100.00;102681.59;5025493;28;20216;-49
2023/04/09 04:11:57;;;;;;;40.17;26.90;;;;;;;3.41;100.00;102689.53;5032117;28;20203;-46
2023/04/09 04:14:30;;;;;;;41.65;27.40;;;;;;;3.38;100.00;102700.09;5060836;28;20217;-45
2023/04/09 04:17:03;;;;;;;40.83;27.55;;;;;;;3.44;100.00;102695.81;5045383;28;20204;-50
2023/04/09 04:19:29;;;;;;;40.03;27.58;;;;;;;3.47;100.00;102692.31;5047590;28;20629;-47
2023/04/09 04:21:55;;;;;;;39.50;26.20;;;;;;;3.56;100.00;102696.94;5048995;28;20548;-46
2023/04/09 04:24:21;;;;;;;41.03;27.00;;;;;;;3.51;100.00;102699.47;5052265;28;20184;-49
2023/04/09 04:26:47;;;;;;;44.80;28.88;;;;;;;3.50;100.00;102695.06;5052860;28;20554;-47
2023/04/09 04:29:16;;;;;;;37.13;25.67;;;;;;;3.57;100.00;102689.00;5051989;28;20198;-49
2023/04/09 04:31:59;;;;;;;34.65;25.73;;;;;;;3.58;100.00;102700.50;5051751;28;20677;-45
2023/04/09 04:34:30;;;;;;;38.90;26.48;;;;;;;3.64;100.00;102700.63;5051656;28;20203;-47
2023/04/09 04:37:02;;;;;;;40.78;27.63;;;;;;;3.68;100.00;102694.53;5047385;28;20219;-48
2023/04/09 04:39:30;;;;;;;38.30;26.20;;;;;;;3.72;100.00;102705.22;5051406;28;20274;-46
2023/04/09 04:42:01;;;;;;;44.35;28.00;;;;;;;3.74;100.00;102693.75;5051308;28;20183;-45
2023/04/09 04:44:27;;;;;;;41.53;28.20;;;;;;;3.73;100.00;102706.13;5049413;28;20225;-46
2023/04/09 04:47:01;;;;;;;37.83;28.13;;;;;;;3.74;100.00;102707.94;5048446;28;20199;-45
2023/04/09 04:49:27;;;;;;;38.47;27.95;;;;;;;3.77;100.00;102705.31;5032998;28;20168;-47
2023/04/09 04:51:53;;;;;;;42.17;28.70;;;;;;;3.81;100.00;102701.00;5031445;28;20172;-45
2023/04/09 04:54:19;;;;;;;46.85;30.45;;;;;;;3.83;100.00;102694.84;5032851;28;20203;-46
2023/04/09 04:56:50;;;;;;;41.92;28.83;;;;;;;3.79;100.00;102692.09;5039286;28;20219;-50
2023/04/09 04:59:40;;;;;;;36.10;26.23;;;;;;;3.85;100.00;102695.78;5038448;28;20547;-45
2023/04/09 05:02:08;;;;;;;34.40;25.80;;;;;;;3.92;100.00;102702.09;5045242;28;20184;-48
2023/04/09 05:04:51;;;;;;;39.42;26.50;;;;;;;3.96;100.00;102700.38;5052346;28;20177;-48
2023/04/09 05:07:20;;;;;;;37.78;27.08;;;;;;;3.98;100.00;102693.34;5032998;28;20216;-46
2023/04/09 05:09:52;;;;;;;41.30;28.67;;;;;;;3.98;100.00;102694.25;5047539;28;20183;-46
2023/04/09 05:12:18;;;;;;;43.70;29.17;;;;;;;3.98;100.00;102694.25;5032973;28;20188;-47
2023/04/09 05:14:48;;;;;;;43.78;29.42;;;;;;;4.01;100.00;102704.03;5050865;28;20215;-45
2023/04/09 05:17:14;;;;;;;50.58;31.90;;;;;;;3.89;100.00;102702.94;5033990;28;20230;-47
2023/04/09 05:19:42;;;;;;;44.88;31.45;;;;;;;3.87;100.00;102704.66;5047612;28;20658;-46
2023/04/09 05:22:09;;;;;;;44.42;29.95;;;;;;;3.94;100.00;102708.31;5050878;28;20191;-45
2023/04/09 05:24:35;;;;;;;44.72;31.60;;;;;;;3.98;100.00;102702.22;5034455;28;20850;-46
2023/04/09 05:27:01;;;;;;;41.78;30.48;;;;;;;4.03;100.00;102699.66;5047376;28;20191;-46
2023/04/09 05:29:27;;;;;;;41.88;30.90;;;;;;;4.06;100.00;102703.22;5050554;28;20599;-45
2023/04/09 05:31:53;;;;;;;49.20;34.58;;;;;;;4.05;100.00;102701.44;5044506;28;20258;-46
2023/04/09 05:34:35;;;;;;;41.72;31.33;;;;;;;4.15;100.00;102707.81;5041447;28;20683;-48
2023/04/09 05:37:00;;;;;;;44.00;32.97;;;;;;;4.19;100.00;102703.47;5047536;28;20203;-50
2023/04/09 05:39:26;;;;;;;50.90;36.00;;;;;;;4.16;100.00;102703.44;5031288;28;20188;-46
2023/04/09 05:41:51;;;;;;;46.08;33.30;;;;;;;4.24;100.00;102715.03;5038068;28;20171;-46
2023/04/09 05:44:23;;;;;;;46.97;36.33;;;;;;;4.28;100.00;102714.25;5046481;28;20183;-44
2023/04/09 05:46:53;;;;;;;48.85;36.70;;;;;;;4.30;100.00;102713.41;5041726;28;20654;-51
2023/04/09 05:49:23;;;;;;;46.67;36.15;;;;;;;4.23;100.00;102726.53;5050538;28;20179;-45
2023/04/09 05:51:51;;;;;;;53.45;38.83;;;;;;;4.22;100.00;102720.34;5050717;28;20346;-48
2023/04/09 05:54:23;;;;;;;51.05;36.05;;;;;;;4.37;100.00;102717.06;5046386;28;20213;-47
2023/04/09 05:56:48;;;;;;;55.85;40.38;;;;;;;4.39;100.00;102715.31;5051548;28;20464;-46
2023/04/09 05:59:14;;;;;;;54.13;38.83;;;;;;;4.42;100.00;102719.81;5050330;28;20571;-44
2023/04/09 06:01:40;;;;;;;56.60;40.45;;;;;;;4.43;100.00;102709.19;5049764;28;20203;-47
2023/04/09 06:04:05;;;;;;;55.97;41.78;;;;;;;4.47;100.00;102715.47;5051566;28;20168;-48
2023/04/09 06:06:32;;;;;;;53.40;41.70;;;;;;;4.53;100.00;102708.50;5064332;28;20568;-46
2023/04/09 06:08:59;;;;;;;47.75;36.40;;;;;;;4.67;100.00;102726.44;5048880;28;20214;-45
2023/04/09 06:11:25;;;;;;;53.08;39.80;;;;;;;4.59;100.00;102728.03;5034345;28;20180;-48
2023/04/09 06:13:51;;;;;;;56.53;40.58;;;;;;;4.57;100.00;102732.44;5031372;28;20188;-45
2023/04/09 06:16:16;;;;;;;52.92;39.70;;;;;;;4.64;100.00;102726.38;5031397;28;20229;-44
2023/04/09 06:18:44;;;;;;;52.15;38.88;;;;;;;4.68;100.00;102720.22;5050037;28;20221;-48
2023/04/09 06:21:12;;;;;;;49.03;37.67;;;;;;;4.77;100.00;102723.06;5033738;28;20176;-50
2023/04/09 06:23:37;;;;;;;51.65;39.38;;;;;;;4.83;100.00;102723.16;5031485;28;20254;-45
2023/04/09 06:26:03;;;;;;;50.97;39.67;;;;;;;4.79;100.00;102721.31;5043099;28;20668;-43
2023/04/09 06:28:28;;;;;;;54.63;38.35;;;;;;;4.74;100.00;102725.66;5050850;28;20211;-49
2023/04/09 06:30:54;;;;;;;54.75;38.65;;;;;;;4.85;100.00;102726.72;5051154;28;20175;-44
2023/04/09 06:33:20;;;;;;;49.92;38.28;;;;;;;4.85;100.00;102725.81;5044715;28;20412;-44
2023/04/09 06:35:46;;;;;;;46.10;36.63;;;;;;;4.88;100.00;102733.84;5049032;28;20544;-46
2023/04/09 06:38:12;;;;;;;46.67;35.35;;;;;;;4.98;100.00;102724.25;5029680;28;20192;-47
2023/04/09 06:40:38;;;;;;;44.90;35.45;;;;;;;4.89;100.00;102727.66;5030857;28;20218;-46
2023/04/09 06:43:05;;;;;;;48.28;35.75;;;;;;;5.00;100.00;102725.19;5031236;28;20171;-46
2023/04/09 06:45:40;;;;;;;47.47;34.38;;;;;;;4.99;100.00;102728.72;5059094;28;20232;-46
2023/04/09 06:48:06;;;;;;;43.85;33.22;;;;;;;5.06;100.00;102733.25;5040253;28;20199;-46
2023/04/09 06:50:31;;;;;;;41.55;33.03;;;;;;;5.03;100.00;102733.19;5049905;28;20242;-46
2023/04/09 06:52:57;;;;;;;42.75;31.98;;;;;;;5.21;100.00;102736.13;5050512;28;20221;-44
2023/04/09 06:55:23;;;;;;;40.67;32.38;;;;;;;5.34;100.00;102738.09;5045751;28;20180;-45
2023/04/09 06:57:48;;;;;;;43.42;31.65;;;;;;;5.37;100.00;102740.78;5030269;28;20261;-45
2023/04/09 07:00:14;;;;;;;40.78;31.23;;;;;;;5.48;100.00;102734.72;5045867;28;20239;-45
2023/04/09 07:02:40;;;;;;;41.90;31.85;;;;;;;5.54;100.00;102730.38;5052360;28;20171;-43
2023/04/09 07:05:05;;;;;;;42.72;30.20;;;;;;;5.61;100.00;102728.69;5044579;28;20310;-47
2023/04/09 07:07:31;;;;;;;40.20;28.65;;;;;;;5.42;100.00;102727.56;5029591;28;20226;-44
2023/04/09 07:09:57;;;;;;;36.75;26.48;;;;;;;5.37;100.00;102735.47;5030604;28;20195;-46
2023/04/09 07:12:40;;;;;;;33.50;24.98;;;;;;;5.46;100.00;102728.50;5030461;28;20164;-47
2023/04/09 07:15:06;;;;;;;37.05;25.00;;;;;;;5.50;100.00;102717.91;5027623;28;20603;-47
2023/04/09 07:17:33;;;;;;;31.17;23.92;;;;;;;5.54;100.00;102718.88;5030206;28;20716;-44
2023/04/09 07:19:59;;;;;;;34.53;24.92;;;;;;;5.71;100.00;102714.66;5034201;28;20204;-49
2023/04/09 07:22:26;;;;;;;35.22;24.85;;;;;;;5.90;100.00;102709.53;5029605;28;20202;-45
2023/04/09 07:24:54;;;;;;;35.17;24.48;;;;;;;6.03;100.00;102707.94;5046893;28;20628;-45
2023/04/09 07:27:26;;;;;;;32.10;25.33;;;;;;;5.97;100.00;102717.66;5049836;28;20205;-45
2023/04/09 07:29:56;;;;;;;33.60;23.70;;;;;;;5.90;100.00;102725.50;5049775;28;20171;-46
2023/04/09 07:32:22;;;;;;;32.55;22.60;;;;;;;5.96;100.00;102714.97;5049621;28;20566;-47
2023/04/09 07:34:50;;;;;;;30.95;21.27;;;;;;;5.99;100.00;102715.00;5049532;28;20557;-46
2023/04/09 07:37:15;;;;;;;30.42;20.48;;;;;;;6.09;100.00;102716.88;5047603;28;20202;-46
2023/04/09 07:39:41;;;;;;;27.65;19.42;;;;;;;5.97;100.00;102719.44;5049014;28;20202;-48
2023/04/09 07:42:07;;;;;;;24.55;18.70;;;;;;;6.13;100.00;102716.03;5048965;28;20207;-45
2023/04/09 07:44:35;;;;;;;24.35;18.40;;;;;;;6.39;100.00;102716.31;5049483;28;20693;-45
2023/04/09 07:47:02;;;;;;;24.27;19.00;;;;;;;6.39;100.00;102720.75;5049431;28;20241;-45
2023/04/09 07:49:28;;;;;;;26.05;18.63;;;;;;;6.67;100.00;102721.88;5048532;28;20310;-46
2023/04/09 07:51:53;;;;;;;25.15;19.17;;;;;;;6.72;100.00;102727.25;5045858;28;20175;-45
2023/04/09 07:54:21;;;;;;;24.23;18.20;;;;;;;7.13;100.00;102706.22;5046971;28;20207;-45
2023/04/09 07:56:48;;;;;;;23.23;17.20;;;;;;;7.37;100.00;102705.47;5048587;28;20170;-44
2023/04/09 07:59:16;;;;;;;19.50;16.05;;;;;;;6.64;100.00;102704.97;5047765;28;20174;-45
2023/04/09 08:01:42;;;;;;;22.38;16.55;;;;;;;6.87;100.00;102705.19;5048663;28;20187;-46
2023/04/09 08:04:08;;;;;;;22.90;16.95;;;;;;;6.94;100.00;102705.22;5048806;28;20164;-44
2023/04/09 08:06:35;;;;;;;21.88;16.33;;;;;;;6.91;100.00;102707.88;5031079;28;20168;-45
2023/04/09 08:09:00;;;;;;;21.98;16.63;;;;;;;7.00;100.00;102712.38;5046264;28;20824;-49
2023/04/09 08:11:26;;;;;;;20.60;15.32;;;;;;;7.13;100.00;102702.69;5046481;28;20168;-46
2023/04/09 08:13:51;;;;;;;22.00;13.90;;;;;;;7.01;100.00;102695.47;5046590;28;20775;-47
2023/04/09 08:16:17;;;;;;;16.13;13.68;;;;;;;7.27;100.00;102703.63;5045887;28;20176;-46
2023/04/09 08:18:43;;;;;;;21.50;14.52;;;;;;;7.25;100.00;102712.53;5048859;28;20252;-46
2023/04/09 08:21:08;;;;;;;21.65;14.52;;;;;;;7.55;100.00;102696.66;5048663;28;20218;-44
2023/04/09 08:23:34;;;;;;;17.70;13.32;;;;;;;8.01;100.00;102699.50;5048561;28;20258;-44
2023/04/09 08:25:59;;;;;;;18.08;13.05;;;;;;;7.94;100.00;102683.47;5047893;28;20240;-46
2023/04/09 08:28:25;;;;;;;18.73;12.68;;;;;;;7.55;100.00;102685.13;5049548;28;20187;-45
2023/04/09 08:30:51;;;;;;;19.67;13.10;;;;;;;7.93;100.00;102689.69;5049315;28;20688;-46
2023/04/09 08:33:17;;;;;;;19.05;12.95;;;;;;;8.38;99.01;102688.00;5050397;28;20236;-45
2023/04/09 08:35:44;;;;;;;17.10;11.55;;;;;;;8.61;97.13;102688.03;5053095;28;20203;-44
2023/04/09 08:38:10;;;;;;;14.68;10.95;;;;;;;8.76;95.14;102684.47;5052680;28;20195;-48
2023/04/09 08:40:36;;;;;;;15.35;10.32;;;;;;;9.02;93.73;102687.09;5053117;28;20824;-45
2023/04/09 08:43:05;;;;;;;17.15;11.43;;;;;;;8.21;91.90;102688.84;5053020;28;20170;-46
2023/04/09 08:45:30;;;;;;;19.63;11.85;;;;;;;7.96;92.20;102673.66;5052270;28;20258;-47
2023/04/09 08:47:59;;;;;;;14.10;10.70;;;;;;;7.76;92.26;102673.63;5053025;28;20606;-49
2023/04/09 08:50:33;;;;;;;15.98;10.05;;;;;;;8.32;92.00;102666.63;5051511;28;20168;-45
2023/04/09 08:53:02;;;;;;;15.52;9.65;;;;;;;8.34;90.95;102671.06;5050679;28;20213;-49
2023/04/09 08:55:30;;;;;;;13.18;9.98;;;;;;;8.23;89.80;102656.81;5052065;28;20210;-45
2023/04/09 08:57:57;;;;;;;13.85;9.90;;;;;;;8.50;89.20;102660.41;5052504;28;20282;-46
2023/04/09 09:00:23;;;;;;;17.75;10.45;;;;;;;8.90;88.29;102655.94;5052665;28;20183;-48
2023/04/09 09:03:08;;;;;;;15.43;11.30;;;;;;;9.57;86.79;102644.09;5051949;28;20167;-45
2023/04/09 09:05:36;;;;;;;15.75;10.57;;;;;;;9.41;85.46;102653.09;5052864;28;20164;-45
2023/04/09 09:08:02;;;;;;;18.10;11.05;;;;;;;9.32;84.99;102648.69;5052693;28;20199;-44
2023/04/09 09:10:42;;;;;;;19.35;14.27;;;;;;;9.84;86.16;102648.44;5051087;28;20170;-44
2023/04/09 09:13:25;;;;;;;18.67;13.20;;;;;;;8.94;87.04;102657.69;5050122;28;20266;-45
2023/04/09 09:15:55;;;;;;;17.45;12.60;;;;;;;8.89;87.84;102669.31;5050976;28;20700;-48
2023/04/09 09:18:37;;;;;;;20.42;13.32;;;;;;;8.52;89.16;102664.88;5051827;28;20291;-45
2023/04/09 09:21:13;;;;;;;18.77;13.40;;;;;;;9.25;90.13;102654.97;5051844;28;20516;-44
2023/04/09 09:23:39;;;;;;;19.85;13.02;;;;;;;8.76;90.02;102657.72;5051588;28;20598;-46
2023/04/09 09:26:19;;;;;;;15.95;12.40;;;;;;;8.56;90.08;102655.06;5051942;28;20248;-47
2023/04/09 09:28:47;;;;;;;18.63;12.13;;;;;;;9.69;90.57;102656.56;5051780;28;20609;-44
2023/04/09 09:31:13;;;;;;;18.23;12.70;;;;;;;8.88;89.03;102652.38;5050677;28;20254;-45
2023/04/09 09:33:40;;;;;;;20.60;13.43;;;;;;;8.52;90.84;102659.53;5050903;28;20191;-46
2023/04/09 09:36:08;;;;;;;17.40;12.77;;;;;;;9.10;91.32;102663.03;5051669;28;20171;-44
2023/04/09 09:38:49;;;;;;;16.33;12.20;;;;;;;8.94;89.45;102667.50;5052028;28;20195;-45
2023/04/09 09:41:16;;;;;;;17.05;11.45;;;;;;;9.98;88.97;102645.66;5052173;28;20163;-45
2023/04/09 09:43:42;;;;;;;15.23;10.75;;;;;;;9.58;87.43;102637.00;5051412;28;20680;-45
2023/04/09 09:46:10;;;;;;;15.13;11.63;;;;;;;9.31;87.07;102646.88;5051828;28;20275;-43
2023/04/09 09:48:35;;;;;;;12.13;9.93;;;;;;;9.40;85.73;102640.59;5050914;28;20187;-49
2023/04/09 09:51:06;;;;;;;13.20;10.73;;;;;;;9.49;84.03;102617.41;5050448;28;20603;-47
2023/04/09 09:53:35;;;;;;;15.48;10.20;;;;;;;9.47;82.40;102621.88;5050747;28;20190;-45
2023/04/09 09:56:03;;;;;;;14.10;9.65;;;;;;;9.32;81.73;102615.69;5051282;28;20195;-45
2023/04/09 09:58:37;;;;;;;16.60;8.88;;;;;;;9.22;80.96;102606.81;5039318;28;20464;-45
2023/04/09 10:01:10;;;;;;;11.18;8.07;;;;;;;9.65;80.37;102610.16;5053837;28;20182;-46
2023/04/09 10:03:38;;;;;;;10.70;7.63;;;;;;;10.02;78.96;102598.34;5039636;28;20175;-47
2023/04/09 10:06:05;;;;;;;10.60;6.72;;;;;;;9.92;76.64;102588.59;5042280;28;20229;-46
2023/04/09 10:08:33;;;;;;;9.32;6.00;;;;;;;10.18;75.77;102586.59;5034047;28;20352;-44
2023/04/09 10:11:00;;;;;;;9.68;6.00;;;;;;;10.55;74.99;102588.97;5035549;28;20183;-45
2023/04/09 10:13:39;;;;;;;11.98;7.10;;;;;;;10.40;73.75;102570.34;5038679;28;20247;-46
2023/04/09 10:16:06;;;;;;;9.02;6.57;;;;;;;9.82;72.73;102567.25;5036870;28;20175;-50
2023/04/09 10:18:32;;;;;;;12.20;6.63;;;;;;;9.44;73.41;102564.78;5039601;28;20290;-47
2023/04/09 10:21:04;;;;;;;12.98;6.75;;;;;;;9.85;74.38;102567.19;5040166;28;20179;-43
2023/04/09 10:23:37;;;;;;;10.48;7.85;;;;;;;9.51;75.08;102573.66;5043629;28;20650;-44
2023/04/09 10:26:03;;;;;;;11.50;8.20;;;;;;;9.68;76.20;102582.50;5039520;28;20283;-44
2023/04/09 10:28:30;;;;;;;13.00;7.95;;;;;;;10.16;75.90;102575.00;5035985;28;20281;-45
2023/04/09 10:30:57;;;;;;;12.80;7.70;;;;;;;10.36;75.45;102576.66;5039173;28;20175;-46
2023/04/09 10:33:25;;;;;;;11.55;7.97;;;;;;;10.71;75.18;102574.53;5038792;28;20274;-45
2023/04/09 10:35:53;;;;;;;11.43;7.82;;;;;;;9.66;75.92;102571.81;5041814;28;20187;-40
2023/04/09 10:38:44;;;;;;;13.25;8.55;;;;;;;10.20;76.09;102574.06;5042490;28;20211;-42
2023/04/09 10:41:13;;;;;;;12.40;7.93;;;;;;;10.43;75.77;102573.00;5053228;28;20546;-43
2023/04/09 10:43:39;;;;;;;10.63;7.97;;;;;;;10.42;75.25;102569.44;5031307;28;20183;-42
2023/04/09 10:46:23;;;;;;;11.00;7.68;;;;;;;10.91;75.14;102571.59;5036153;28;20188;-41
2023/04/09 10:49:06;;;;;;;12.23;7.85;;;;;;;10.96;74.56;102559.94;5037693;28;20207;-42
2023/04/09 10:51:35;;;;;;;10.88;7.80;;;;;;;11.25;74.30;102555.06;5046853;28;20195;-44
2023/04/09 10:54:01;;;;;;;10.40;7.45;;;;;;;11.63;73.29;102539.34;5037884;28;20799;-43
2023/04/09 10:56:26;;;;;;;12.15;8.30;;;;;;;11.46;72.25;102540.47;5035292;28;20368;-43
2023/04/09 10:58:52;;;;;;;12.10;7.65;;;;;;;11.38;73.57;102545.06;5031401;28;20204;-41
2023/04/09 11:01:21;;;;;;;10.68;7.57;;;;;;;10.92;73.42;102548.34;5038381;28;20219;-42
2023/04/09 11:04:07;;;;;;;10.18;6.95;;;;;;;10.37;73.60;102546.28;5036938;28;20180;-43
2023/04/09 11:06:35;;;;;;;9.23;6.75;;;;;;;11.49;73.34;102551.16;5039238;28;20167;-43
2023/04/09 11:09:04;;;;;;;9.25;6.85;;;;;;;11.84;72.04;102533.63;5036928;28;20226;-44
2023/04/09 11:11:29;;;;;;;11.25;7.22;;;;;;;11.98;71.82;102528.06;5035310;28;20190;-44
2023/04/09 11:14:00;;;;;;;10.43;6.78;;;;;;;11.89;71.50;102518.34;5040505;28;20635;-43
2023/04/09 11:16:29;;;;;;;12.00;6.97;;;;;;;11.00;72.05;102519.66;5038097;28;20281;-44
2023/04/09 11:18:56;;;;;;;12.70;6.22;;;;;;;11.41;72.23;102534.28;5030006;28;20207;-42